Time;durP1;ratioP1;P1;durP2;ratioP2;P2;SDS_P1;SDS_P2;PMS_P1;PMS_P2;Temp;Humidity;BMP_temperature;BMP_pressure;BME280_temperature;BME280_humidity;BME280_pressure;Samples;Min_cycle;Max_cycle;Signal;HPM_P1;HPM_P2
2023/01/01 00:00:56;;;;;;;19.58;4.90;;;;;;;;;;5093717;28;20102;-77
2023/01/01 00:03:21;;;;;;;13.63;3.83;;;;;;;;;;5092654;28;20452;-78
2023/01/01 00:05:46;;;;;;;17.58;3.88;;;;;;;;;;5091841;28;20055;-78
2023/01/01 00:08:12;;;;;;;12.70;2.97;;;;;;;;;;5091922;28;20065;-79
2023/01/01 00:10:37;;;;;;;14.05;2.85;;;;;;;;;;5091897;28;20016;-77
2023/01/01 00:13:03;;;;;;;21.98;4.32;;;;;;;;;;5092347;28;20031;-79
2023/01/01 00:15:28;;;;;;;14.20;3.00;;;;;;;;;;5092869;28;20016;-77
2023/01/01 00:17:54;;;;;;;13.23;2.92;;;;;;;;;;5091269;28;20522;-77
2023/01/01 00:20:19;;;;;;;12.20;2.90;;;;;;;;;;5092886;28;20020;-77
2023/01/01 00:22:46;;;;;;;15.57;3.28;;;;;;;;;;5091256;28;20077;-77
2023/01/01 00:25:14;;;;;;;16.25;2.35;;;;;;;;;;5092454;28;20484;-79
2023/01/01 00:27:40;;;;;;;9.07;2.60;;;;;;;;;;5092493;28;20016;-78
2023/01/01 00:30:07;;;;;;;11.23;2.33;;;;;;;;;;5092209;28;20157;-77
2023/01/01 00:32:33;;;;;;;14.07;3.28;;;;;;;;;;5092345;28;20012;-77
2023/01/01 00:34:58;;;;;;;15.15;3.78;;;;;;;;;;5092604;28;20594;-77
2023/01/01 00:37:23;;;;;;;16.45;2.83;;;;;;;;;;5091146;28;20024;-78
2023/01/01 00:39:49;;;;;;;10.73;2.60;;;;;;;;;;5091087;28;20105;-78
2023/01/01 00:42:14;;;;;;;13.63;2.75;;;;;;;;;;5092524;28;20468;-78
2023/01/01 00:44:40;;;;;;;11.07;2.50;;;;;;;;;;5091048;28;20115;-77
2023/01/01 00:47:05;;;;;;;12.52;2.38;;;;;;;;;;5092257;28;20053;-76
2023/01/01 00:49:31;;;;;;;11.75;3.28;;;;;;;;;;5092853;28;20070;-79
2023/01/01 00:51:56;;;;;;;16.98;3.13;;;;;;;;;;5092089;28;20013;-79
2023/01/01 00:54:22;;;;;;;12.32;2.53;;;;;;;;;;5092288;28;20035;-79
2023/01/01 00:56:47;;;;;;;16.98;2.70;;;;;;;;;;5093963;28;20023;-77
2023/01/01 00:59:13;;;;;;;10.95;2.80;;;;;;;;;;5091574;28;20047;-79
2023/01/01 01:01:39;;;;;;;12.82;3.15;;;;;;;;;;5091770;28;20024;-80
2023/01/01 01:04:05;;;;;;;14.88;3.22;;;;;;;;;;5092769;28;20501;-79
2023/01/01 01:06:31;;;;;;;12.98;2.38;;;;;;;;;;5092103;28;20491;-78
2023/01/01 01:08:56;;;;;;;10.43;2.22;;;;;;;;;;5093631;28;20023;-78
2023/01/01 01:11:26;;;;;;;16.67;2.65;;;;;;;;;;5092643;28;20469;-79
2023/01/01 01:13:52;;;;;;;19.85;2.65;;;;;;;;;;5091053;28;20384;-79
2023/01/01 01:16:19;;;;;;;9.55;2.40;;;;;;;;;;5090966;28;20085;-78
2023/01/01 01:18:45;;;;;;;14.77;2.30;;;;;;;;;;5092431;28;20012;-78
2023/01/01 01:21:15;;;;;;;14.13;3.92;;;;;;;;;;5091739;28;20017;-78
2023/01/01 01:23:40;;;;;;;14.45;4.05;;;;;;;;;;5091828;28;20043;-81
2023/01/01 01:26:13;;;;;;;10.23;2.17;;;;;;;;;;5090277;28;20380;-79
2023/01/01 01:28:39;;;;;;;10.88;2.22;;;;;;;;;;5090628;28;20407;-78
2023/01/01 01:31:04;;;;;;;11.23;2.58;;;;;;;;;;5090376;28;20059;-77
2023/01/01 01:33:30;;;;;;;17.00;3.22;;;;;;;;;;5091764;28;20084;-77
2023/01/01 01:35:55;;;;;;;14.35;3.85;;;;;;;;;;5090686;28;20469;-78
2023/01/01 01:38:21;;;;;;;11.45;2.28;;;;;;;;;;5091746;28;20008;-78
2023/01/01 01:40:46;;;;;;;12.68;2.42;;;;;;;;;;5090414;28;20028;-78
2023/01/01 01:43:32;;;;;;;16.75;3.03;;;;;;;;;;5091423;28;20019;-78
2023/01/01 01:46:17;;;;;;;13.32;3.28;;;;;;;;;;5049029;28;20030;-78
2023/01/01 01:48:44;;;;;;;15.55;3.08;;;;;;;;;;5089292;28;20391;-78
2023/01/01 01:51:12;;;;;;;17.63;3.95;;;;;;;;;;5091246;28;20022;-77
2023/01/01 01:53:39;;;;;;;14.50;3.53;;;;;;;;;;5089706;28;20073;-78
2023/01/01 01:56:07;;;;;;;6.40;2.30;;;;;;;;;;5090249;28;20027;-78
2023/01/01 01:58:33;;;;;;;9.75;2.50;;;;;;;;;;5091483;28;20020;-79
2023/01/01 02:00:59;;;;;;;13.07;2.15;;;;;;;;;;5091223;28;20024;-77
2023/01/01 02:03:38;;;;;;;11.38;2.70;;;;;;;;;;5091974;28;20028;-77
2023/01/01 02:06:04;;;;;;;15.55;2.83;;;;;;;;;;5093681;28;20058;-77
2023/01/01 02:08:31;;;;;;;10.70;2.33;;;;;;;;;;5093825;28;20020;-76
2023/01/01 02:10:56;;;;;;;8.75;2.63;;;;;;;;;;5095379;28;20016;-76
2023/01/01 02:13:22;;;;;;;10.25;2.25;;;;;;;;;;5093495;28;20032;-77
2023/01/01 02:15:52;;;;;;;12.88;2.97;;;;;;;;;;5094429;28;20457;-77
2023/01/01 02:18:20;;;;;;;10.50;2.70;;;;;;;;;;5095173;28;20379;-77
2023/01/01 02:20:45;;;;;;;13.07;2.22;;;;;;;;;;5095220;28;20065;-77
2023/01/01 02:23:10;;;;;;;11.38;2.72;;;;;;;;;;5094113;28;20134;-77
2023/01/01 02:25:36;;;;;;;10.90;2.90;;;;;;;;;;5094253;28;20016;-79
2023/01/01 02:28:11;;;;;;;12.50;2.88;;;;;;;;;;5094202;28;20548;-76
2023/01/01 02:30:38;;;;;;;11.77;2.22;;;;;;;;;;5095518;28;20028;-78
2023/01/01 02:33:10;;;;;;;9.18;2.60;;;;;;;;;;5093951;28;20035;-79
2023/01/01 02:35:57;;;;;;;14.15;3.33;;;;;;;;;;5093551;28;20012;-78
2023/01/01 02:38:52;;;;;;;11.30;3.45;;;;;;;;;;5094298;28;20034;-78
2023/01/01 02:41:38;;;;;;;11.10;2.03;;;;;;;;;;5075640;28;20028;-77
2023/01/01 02:44:04;;;;;;;11.05;1.80;;;;;;;;;;5093404;28;20020;-78
2023/01/01 02:46:31;;;;;;;10.25;2.70;;;;;;;;;;5094020;28;20134;-78
2023/01/01 02:48:57;;;;;;;10.00;2.30;;;;;;;;;;5095956;28;20020;-80
2023/01/01 02:51:34;;;;;;;11.32;2.97;;;;;;;;;;5093783;28;20362;-78
2023/01/01 02:54:19;;;;;;;11.07;2.13;;;;;;;;;;5093170;28;20389;-80
2023/01/01 02:56:59;;;;;;;14.67;2.50;;;;;;;;;;5094065;28;20016;-79
2023/01/01 03:02:24;;;;;;;14.70;3.63;;;;;;;;;;5094761;28;20082;-79
2023/01/01 03:04:52;;;;;;;10.27;2.47;;;;;;;;;;5092819;28;20052;-79
2023/01/01 03:07:24;;;;;;;12.40;2.08;;;;;;;;;;5094197;28;20380;-79
2023/01/01 03:09:55;;;;;;;8.05;2.08;;;;;;;;;;5092985;28;20468;-80
2023/01/01 03:12:38;;;;;;;12.40;3.08;;;;;;;;;;5092774;28;20887;-79
2023/01/01 03:15:09;;;;;;;12.95;2.70;;;;;;;;;;5091221;28;20077;-78
2023/01/01 03:17:37;;;;;;;14.10;2.25;;;;;;;;;;5092800;28;20020;-79
2023/01/01 03:20:07;;;;;;;10.95;2.53;;;;;;;;;;5092786;28;20020;-78
2023/01/01 03:22:34;;;;;;;12.50;2.50;;;;;;;;;;5093993;28;20108;-79
2023/01/01 03:25:00;;;;;;;12.13;2.53;;;;;;;;;;5092308;28;20108;-79
2023/01/01 03:27:29;;;;;;;9.23;2.75;;;;;;;;;;5092631;28;20464;-79
2023/01/01 03:29:58;;;;;;;8.85;2.63;;;;;;;;;;5093659;28;20048;-79
2023/01/01 03:32:58;;;;;;;11.43;2.92;;;;;;;;;;5092980;28;20028;-80
2023/01/01 03:35:13;;;;;;;10.57;1.88;;;;;;;;;;5094494;28;20032;-79
2023/01/01 03:37:42;;;;;;;9.82;2.10;;;;;;;;;;5093430;28;20471;-79
2023/01/01 03:40:08;;;;;;;9.82;2.97;;;;;;;;;;5093531;28;20031;-80
2023/01/01 03:42:45;;;;;;;10.35;2.42;;;;;;;;;;5093700;28;20095;-78
2023/01/01 03:45:16;;;;;;;15.25;2.65;;;;;;;;;;5093529;28;20034;-79
2023/01/01 03:47:41;;;;;;;8.98;2.80;;;;;;;;;;5092076;28;20383;-79
2023/01/01 03:50:07;;;;;;;10.90;2.58;;;;;;;;;;5093598;28;20016;-79
2023/01/01 03:52:32;;;;;;;9.95;2.50;;;;;;;;;;5093624;28;20048;-79
2023/01/01 03:55:01;;;;;;;10.60;2.45;;;;;;;;;;5093002;28;20031;-79
2023/01/01 03:57:37;;;;;;;15.23;3.15;;;;;;;;;;5092360;28;20115;-79
2023/01/01 04:00:05;;;;;;;8.98;1.88;;;;;;;;;;5092726;28;20028;-80
2023/01/01 04:02:37;;;;;;;10.48;2.70;;;;;;;;;;5094101;28;20016;-78
2023/01/01 04:05:03;;;;;;;8.02;1.80;;;;;;;;;;5095769;28;20048;-78
2023/01/01 04:07:30;;;;;;;15.02;4.95;;;;;;;;;;5107513;28;20020;-78
2023/01/01 04:09:58;;;;;;;8.80;2.78;;;;;;;;;;5110915;28;20016;-80
2023/01/01 04:12:23;;;;;;;9.13;2.50;;;;;;;;;;5102525;28;20024;-78
2023/01/01 04:14:49;;;;;;;8.90;2.80;;;;;;;;;;5092261;28;20051;-77
2023/01/01 04:17:14;;;;;;;7.97;1.98;;;;;;;;;;5091442;28;20032;-78
2023/01/01 04:19:40;;;;;;;12.07;3.28;;;;;;;;;;5092245;28;20400;-78
2023/01/01 04:22:05;;;;;;;10.38;2.38;;;;;;;;;;5091641;28;20142;-77
2023/01/01 04:24:31;;;;;;;10.93;3.45;;;;;;;;;;5091582;28;20024;-79
2023/01/01 04:26:56;;;;;;;10.13;2.50;;;;;;;;;;5092763;28;20023;-76
2023/01/01 04:29:22;;;;;;;7.18;2.35;;;;;;;;;;5091578;28;20020;-78
2023/01/01 04:31:47;;;;;;;15.80;3.20;;;;;;;;;;5092658;28;20403;-77
2023/01/01 04:34:13;;;;;;;10.52;3.13;;;;;;;;;;5091704;28;20032;-78
2023/01/01 04:36:39;;;;;;;9.10;3.00;;;;;;;;;;5092556;28;20166;-78
2023/01/01 04:39:04;;;;;;;10.88;2.80;;;;;;;;;;5092861;28;20487;-77
2023/01/01 04:41:30;;;;;;;13.10;2.65;;;;;;;;;;5091284;28;20020;-77
2023/01/01 04:43:55;;;;;;;13.70;2.83;;;;;;;;;;5093043;28;20016;-77
2023/01/01 04:46:21;;;;;;;8.25;2.58;;;;;;;;;;5092607;28;20372;-78
2023/01/01 04:48:47;;;;;;;12.50;3.25;;;;;;;;;;5093011;28;20460;-78
2023/01/01 04:51:13;;;;;;;7.65;2.60;;;;;;;;;;5091041;28;20022;-77
2023/01/01 04:53:39;;;;;;;10.32;3.53;;;;;;;;;;5092496;28;20068;-78
2023/01/01 04:56:22;;;;;;;18.90;3.97;;;;;;;;;;5091210;28;20051;-78
2023/01/01 04:58:48;;;;;;;14.50;3.38;;;;;;;;;;5092469;28;20069;-77
2023/01/01 05:01:15;;;;;;;12.05;2.85;;;;;;;;;;5090977;28;20020;-79
2023/01/01 05:03:41;;;;;;;11.20;2.92;;;;;;;;;;5092735;28;20098;-78
2023/01/01 05:06:08;;;;;;;11.25;2.65;;;;;;;;;;5093307;28;20098;-77
2023/01/01 05:08:34;;;;;;;10.32;3.42;;;;;;;;;;5092510;28;20095;-79
2023/01/01 05:11:00;;;;;;;10.85;3.08;;;;;;;;;;5092712;28;20017;-78
2023/01/01 05:13:26;;;;;;;12.68;3.65;;;;;;;;;;5092272;28;20058;-79
2023/01/01 05:15:52;;;;;;;15.02;3.45;;;;;;;;;;5090970;28;20035;-78
2023/01/01 05:18:17;;;;;;;10.30;2.97;;;;;;;;;;5091373;28;20027;-79
2023/01/01 05:20:42;;;;;;;8.98;2.85;;;;;;;;;;5091094;28;20024;-78
2023/01/01 05:23:08;;;;;;;13.57;2.85;;;;;;;;;;5092517;28;20012;-79
2023/01/01 05:25:33;;;;;;;8.60;2.45;;;;;;;;;;5091053;28;20012;-79
2023/01/01 05:27:59;;;;;;;12.50;2.95;;;;;;;;;;5090808;28;20073;-78
2023/01/01 05:30:24;;;;;;;12.82;2.97;;;;;;;;;;5091202;28;20433;-78
2023/01/01 05:32:50;;;;;;;9.85;2.95;;;;;;;;;;5092052;28;20100;-79
2023/01/01 05:35:15;;;;;;;7.20;2.33;;;;;;;;;;5090761;28;20042;-79
2023/01/01 05:37:41;;;;;;;10.40;3.30;;;;;;;;;;5092149;28;20040;-79
2023/01/01 05:40:06;;;;;;;7.40;3.20;;;;;;;;;;5094173;28;20372;-78
2023/01/01 05:42:32;;;;;;;9.93;2.80;;;;;;;;;;5095767;28;20047;-79
2023/01/01 05:44:58;;;;;;;13.02;3.42;;;;;;;;;;5095905;28;20070;-79
2023/01/01 05:47:23;;;;;;;13.02;3.40;;;;;;;;;;5096054;28;20544;-78
2023/01/01 05:49:48;;;;;;;8.90;2.60;;;;;;;;;;5094658;28;20020;-78
2023/01/01 05:52:14;;;;;;;12.85;3.13;;;;;;;;;;5094480;28;20052;-78
2023/01/01 05:54:39;;;;;;;8.88;2.90;;;;;;;;;;5095655;28;20031;-78
2023/01/01 05:57:05;;;;;;;13.02;2.95;;;;;;;;;;5093919;28;20059;-79
2023/01/01 05:59:30;;;;;;;13.00;2.80;;;;;;;;;;5095629;28;20388;-78
2023/01/01 06:01:56;;;;;;;13.13;2.70;;;;;;;;;;5094256;28;20024;-78
2023/01/01 06:04:21;;;;;;;15.05;3.50;;;;;;;;;;5094083;28;20063;-78
2023/01/01 06:06:47;;;;;;;8.95;2.70;;;;;;;;;;5095297;28;20024;-78
2023/01/01 06:09:14;;;;;;;6.03;2.30;;;;;;;;;;5093758;28;20052;-79
2023/01/01 06:11:40;;;;;;;11.45;2.42;;;;;;;;;;5093842;28;20027;-78
2023/01/01 06:14:05;;;;;;;7.68;2.30;;;;;;;;;;5095246;28;20101;-77
2023/01/01 06:16:31;;;;;;;9.38;2.25;;;;;;;;;;5094536;28;20016;-77
2023/01/01 06:18:58;;;;;;;11.07;2.78;;;;;;;;;;5095127;28;20023;-78
2023/01/01 06:21:24;;;;;;;6.88;2.58;;;;;;;;;;5095235;28;20012;-78
2023/01/01 06:23:50;;;;;;;5.88;2.15;;;;;;;;;;5094013;28;20016;-78
2023/01/01 06:26:20;;;;;;;6.32;1.88;;;;;;;;;;5095031;28;20459;-79
2023/01/01 06:28:46;;;;;;;9.70;2.78;;;;;;;;;;5094199;28;20024;-79
2023/01/01 06:31:15;;;;;;;9.68;2.50;;;;;;;;;;5094950;28;20095;-78
2023/01/01 06:33:41;;;;;;;9.15;1.85;;;;;;;;;;5094905;28;20035;-77
2023/01/01 06:36:08;;;;;;;5.80;2.00;;;;;;;;;;5094404;28;20024;-77
2023/01/01 06:38:34;;;;;;;7.70;2.28;;;;;;;;;;5094328;28;20020;-78
2023/01/01 06:41:01;;;;;;;5.97;2.20;;;;;;;;;;5094933;28;20464;-77
2023/01/01 06:43:26;;;;;;;11.25;2.70;;;;;;;;;;5093417;28;20035;-79
2023/01/01 06:46:01;;;;;;;7.93;2.30;;;;;;;;;;5093530;28;20031;-79
2023/01/01 06:48:28;;;;;;;9.48;2.20;;;;;;;;;;5094638;28;20345;-78
2023/01/01 06:50:53;;;;;;;8.55;2.55;;;;;;;;;;5094452;28;20023;-79
2023/01/01 06:53:22;;;;;;;8.30;3.05;;;;;;;;;;5092877;28;20028;-79
2023/01/01 06:55:48;;;;;;;9.52;2.20;;;;;;;;;;5094552;28;20016;-78
2023/01/01 06:58:13;;;;;;;6.93;2.20;;;;;;;;;;5095103;28;20023;-79
2023/01/01 07:00:39;;;;;;;7.18;2.40;;;;;;;;;;5095090;28;20020;-79
2023/01/01 07:03:04;;;;;;;8.88;2.40;;;;;;;;;;5094712;28;20479;-78
2023/01/01 07:05:30;;;;;;;5.47;1.92;;;;;;;;;;5109739;28;20048;-78
2023/01/01 07:07:56;;;;;;;9.32;2.40;;;;;;;;;;5109697;28;20043;-79
2023/01/01 07:10:21;;;;;;;7.97;2.35;;;;;;;;;;5100365;28;20052;-79
2023/01/01 07:12:47;;;;;;;10.50;2.17;;;;;;;;;;5094542;28;20020;-78
2023/01/01 07:15:12;;;;;;;7.50;2.00;;;;;;;;;;5094203;28;20028;-77
2023/01/01 07:17:38;;;;;;;9.75;2.30;;;;;;;;;;5093151;28;20419;-79
2023/01/01 07:20:03;;;;;;;9.30;2.30;;;;;;;;;;5094507;28;20038;-79
2023/01/01 07:22:29;;;;;;;8.77;1.55;;;;;;;;;;5092923;28;20115;-78
2023/01/01 07:24:54;;;;;;;8.63;2.10;;;;;;;;;;5092649;28;20103;-78
2023/01/01 07:27:20;;;;;;;8.50;2.08;;;;;;;;;;5094226;28;20016;-77
2023/01/01 07:29:45;;;;;;;11.25;2.40;;;;;;;;;;5094066;28;20069;-78
2023/01/01 07:32:12;;;;;;;10.63;3.97;;;;;;;;;;5093978;28;20016;-77
2023/01/01 07:34:37;;;;;;;6.65;2.17;;;;;;;;;;5094207;28;20126;-79
2023/01/01 07:37:02;;;;;;;6.45;2.33;;;;;;;;;;5092315;28;20060;-78
2023/01/01 07:39:28;;;;;;;8.57;2.75;;;;;;;;;;5092695;28;20050;-78
2023/01/01 07:41:53;;;;;;;9.93;2.55;;;;;;;;;;5092455;28;20008;-78
2023/01/01 07:44:19;;;;;;;8.55;2.45;;;;;;;;;;5093613;28;20020;-78
2023/01/01 07:46:44;;;;;;;7.32;2.42;;;;;;;;;;5092477;28;20020;-78
2023/01/01 07:49:10;;;;;;;9.15;2.97;;;;;;;;;;5093420;28;20016;-77
2023/01/01 07:51:35;;;;;;;7.35;2.53;;;;;;;;;;5091956;28;20061;-78
2023/01/01 07:54:01;;;;;;;8.93;3.10;;;;;;;;;;5092114;28;20028;-78
2023/01/01 07:56:26;;;;;;;10.02;2.50;;;;;;;;;;5092141;28;20464;-77
2023/01/01 07:58:51;;;;;;;7.10;2.03;;;;;;;;;;5093568;28;20125;-78
2023/01/01 08:01:18;;;;;;;6.97;2.17;;;;;;;;;;5092657;28;20089;-78
2023/01/01 08:03:43;;;;;;;5.35;2.22;;;;;;;;;;5093206;28;20023;-77
2023/01/01 08:06:12;;;;;;;6.80;2.45;;;;;;;;;;5093303;28;20028;-77
2023/01/01 08:08:37;;;;;;;9.50;2.60;;;;;;;;;;5091624;28;20099;-78
2023/01/01 08:11:03;;;;;;;9.35;2.90;;;;;;;;;;5091933;28;20110;-78
2023/01/01 08:13:28;;;;;;;5.95;2.15;;;;;;;;;;5093363;28;20081;-78
2023/01/01 08:15:56;;;;;;;12.57;2.50;;;;;;;;;;5094228;28;20012;-78
2023/01/01 08:18:23;;;;;;;12.93;3.17;;;;;;;;;;5093069;28;20423;-79
2023/01/01 08:20:48;;;;;;;7.35;2.40;;;;;;;;;;5092376;28;20020;-79
2023/01/01 08:23:13;;;;;;;8.13;2.80;;;;;;;;;;5091519;28;20039;-77
2023/01/01 08:25:39;;;;;;;7.00;2.60;;;;;;;;;;5091886;28;20012;-79
2023/01/01 08:28:04;;;;;;;8.73;2.60;;;;;;;;;;5093340;28;20377;-80
2023/01/01 08:30:30;;;;;;;6.95;2.45;;;;;;;;;;5093244;28;20460;-79
2023/01/01 08:32:55;;;;;;;8.93;2.72;;;;;;;;;;5091684;28;20020;-79
2023/01/01 08:35:21;;;;;;;10.80;3.88;;;;;;;;;;5092787;28;20016;-79
2023/01/01 08:37:46;;;;;;;12.07;2.75;;;;;;;;;;5092811;28;20012;-80
2023/01/01 08:40:12;;;;;;;10.73;2.60;;;;;;;;;;5092634;28;20548;-79
2023/01/01 08:42:37;;;;;;;8.85;3.30;;;;;;;;;;5093406;28;20012;-80
2023/01/01 08:45:03;;;;;;;11.50;3.22;;;;;;;;;;5093353;28;20107;-79
2023/01/01 08:47:28;;;;;;;11.88;3.80;;;;;;;;;;5093223;28;20021;-78
2023/01/01 08:49:54;;;;;;;7.22;2.70;;;;;;;;;;5093246;28;20036;-77
2023/01/01 08:52:20;;;;;;;9.02;3.17;;;;;;;;;;5092820;28;20016;-77
2023/01/01 08:54:45;;;;;;;9.93;3.15;;;;;;;;;;5091619;28;20399;-77
2023/01/01 08:57:11;;;;;;;10.52;3.05;;;;;;;;;;5092773;28;20469;-78
2023/01/01 08:59:36;;;;;;;12.68;2.60;;;;;;;;;;5091906;28;20020;-80
2023/01/01 09:02:03;;;;;;;9.02;2.78;;;;;;;;;;5093034;28;20480;-78
2023/01/01 09:04:28;;;;;;;8.13;2.92;;;;;;;;;;5091272;28;20058;-79
2023/01/01 09:06:54;;;;;;;11.60;3.78;;;;;;;;;;5091432;28;20020;-77
2023/01/01 09:09:19;;;;;;;10.20;3.20;;;;;;;;;;5094485;28;20013;-78
2023/01/01 09:11:56;;;;;;;7.13;3.03;;;;;;;;;;5093227;28;20127;-78
2023/01/01 09:14:21;;;;;;;15.52;4.03;;;;;;;;;;5096640;28;20032;-77
2023/01/01 09:16:47;;;;;;;10.65;2.78;;;;;;;;;;5095277;28;20031;-76
2023/01/01 09:19:12;;;;;;;12.45;3.13;;;;;;;;;;5096326;28;20016;-77
2023/01/01 09:21:38;;;;;;;6.63;2.70;;;;;;;;;;5096327;28;20097;-78
2023/01/01 09:24:03;;;;;;;7.35;2.75;;;;;;;;;;5096368;28;20023;-78
2023/01/01 09:26:29;;;;;;;9.70;3.25;;;;;;;;;;5097348;28;20107;-76
2023/01/01 09:28:56;;;;;;;9.27;2.22;;;;;;;;;;5094921;28;20103;-76
2023/01/01 09:31:22;;;;;;;5.65;2.45;;;;;;;;;;5096117;28;20109;-77
2023/01/01 09:33:49;;;;;;;8.93;3.00;;;;;;;;;;5096354;28;20028;-79
2023/01/01 09:36:25;;;;;;;7.47;2.33;;;;;;;;;;5094988;28;20119;-79
2023/01/01 09:38:51;;;;;;;10.85;2.50;;;;;;;;;;5094934;28;20019;-78
2023/01/01 09:41:35;;;;;;;6.07;2.35;;;;;;;;;;5104648;28;20027;-75
2023/01/01 09:44:01;;;;;;;7.28;2.17;;;;;;;;;;5102748;28;20469;-76
2023/01/01 09:46:26;;;;;;;8.82;2.47;;;;;;;;;;5096877;28;20059;-77
2023/01/01 09:48:54;;;;;;;4.28;2.38;;;;;;;;;;5095690;28;20035;-77
2023/01/01 09:51:21;;;;;;;15.63;3.95;;;;;;;;;;5096717;28;20016;-77
2023/01/01 09:53:49;;;;;;;7.60;2.72;;;;;;;;;;5095325;28;20085;-78
2023/01/01 09:56:24;;;;;;;9.15;2.50;;;;;;;;;;5095457;28;20027;-77
2023/01/01 09:58:50;;;;;;;8.82;2.58;;;;;;;;;;5096340;28;20017;-77
2023/01/01 10:01:34;;;;;;;5.03;1.77;;;;;;;;;;5094529;28;20388;-80
2023/01/01 10:03:59;;;;;;;7.32;2.35;;;;;;;;;;5094474;28;20063;-77
2023/01/01 10:06:27;;;;;;;6.07;2.08;;;;;;;;;;5094725;28;20020;-77
2023/01/01 10:09:03;;;;;;;7.75;2.42;;;;;;;;;;5096122;28;20501;-77
2023/01/01 10:11:30;;;;;;;6.38;2.20;;;;;;;;;;5095078;28;20020;-79
2023/01/01 10:13:57;;;;;;;8.18;2.10;;;;;;;;;;5094264;28;20189;-77
2023/01/01 10:16:35;;;;;;;7.80;2.53;;;;;;;;;;5094257;28;20362;-76
2023/01/01 10:19:19;;;;;;;6.45;2.13;;;;;;;;;;5095265;28;20022;-77
2023/01/01 10:21:45;;;;;;;9.48;2.20;;;;;;;;;;5095186;28;20021;-79
2023/01/01 10:24:29;;;;;;;8.82;2.13;;;;;;;;;;5094289;28;20439;-77
2023/01/01 10:26:55;;;;;;;8.30;2.13;;;;;;;;;;5095608;28;20452;-78
2023/01/01 10:29:22;;;;;;;5.95;2.22;;;;;;;;;;5094979;28;20461;-77
2023/01/01 10:31:48;;;;;;;8.40;2.25;;;;;;;;;;5093659;28;20534;-77
2023/01/01 10:34:21;;;;;;;8.05;2.20;;;;;;;;;;5093122;28;20059;-77
2023/01/01 10:36:47;;;;;;;7.15;1.52;;;;;;;;;;5094807;28;20020;-77
2023/01/01 10:39:16;;;;;;;8.00;2.20;;;;;;;;;;5093665;28;20039;-78
2023/01/01 10:41:42;;;;;;;6.95;1.80;;;;;;;;;;5093332;28;20024;-77
2023/01/01 10:44:07;;;;;;;6.78;2.22;;;;;;;;;;5093415;28;20059;-78
2023/01/01 10:46:34;;;;;;;7.90;1.77;;;;;;;;;;5095735;28;20048;-81
2023/01/01 10:49:12;;;;;;;4.32;1.38;;;;;;;;;;5092893;28;20551;-78
2023/01/01 10:51:42;;;;;;;5.90;2.20;;;;;;;;;;5095525;28;20089;-79
2023/01/01 10:54:28;;;;;;;8.95;1.60;;;;;;;;;;5095750;28;20085;-79
2023/01/01 10:56:53;;;;;;;5.75;1.88;;;;;;;;;;5080032;28;20494;-79
2023/01/01 10:59:33;;;;;;;7.75;3.97;;;;;;;;;;5094195;28;20117;-78
2023/01/01 11:02:16;;;;;;;10.02;2.22;;;;;;;;;;5094219;28;20133;-77
2023/01/01 11:04:41;;;;;;;9.07;2.13;;;;;;;;;;5094282;28;20143;-78
2023/01/01 11:07:07;;;;;;;6.97;2.28;;;;;;;;;;5093830;28;20499;-78
2023/01/01 11:09:37;;;;;;;5.88;2.13;;;;;;;;;;5093182;28;20031;-77
2023/01/01 11:12:07;;;;;;;9.75;2.10;;;;;;;;;;5094067;28;20020;-77
2023/01/01 11:14:37;;;;;;;8.75;1.90;;;;;;;;;;5092911;28;20058;-77
2023/01/01 11:17:03;;;;;;;8.38;2.33;;;;;;;;;;5094413;28;20499;-77
2023/01/01 11:19:35;;;;;;;8.00;2.28;;;;;;;;;;5093326;28;20024;-77
2023/01/01 11:22:01;;;;;;;8.35;1.83;;;;;;;;;;5094390;28;20012;-76
2023/01/01 11:24:28;;;;;;;4.85;1.95;;;;;;;;;;5093032;28;20111;-78
2023/01/01 11:27:11;;;;;;;9.68;1.77;;;;;;;;;;5093149;28;20012;-77
2023/01/01 11:29:36;;;;;;;9.48;1.88;;;;;;;;;;5094419;28;20020;-78
2023/01/01 11:32:05;;;;;;;7.85;2.22;;;;;;;;;;5093361;28;20606;-77
2023/01/01 11:34:33;;;;;;;8.73;2.13;;;;;;;;;;5093318;28;20480;-78
2023/01/01 11:37:17;;;;;;;7.20;1.88;;;;;;;;;;5091983;28;20043;-77
2023/01/01 11:39:44;;;;;;;5.18;1.75;;;;;;;;;;5093006;28;20016;-81
2023/01/01 11:42:15;;;;;;;8.95;1.73;;;;;;;;;;5092750;28;20016;-80
2023/01/01 11:44:46;;;;;;;12.80;1.98;;;;;;;;;;5094166;28;20020;-80
2023/01/01 11:47:24;;;;;;;6.82;2.28;;;;;;;;;;5092299;28;20024;-77
2023/01/01 11:50:01;;;;;;;4.90;1.52;;;;;;;;;;5092531;28;20124;-79
2023/01/01 11:52:38;;;;;;;5.80;1.70;;;;;;;;;;5093586;28;20039;-77
2023/01/01 11:55:10;;;;;;;4.47;1.45;;;;;;;;;;5093554;28;20020;-77
2023/01/01 11:57:37;;;;;;;5.22;1.67;;;;;;;;;;5093535;28;20023;-77
2023/01/01 12:00:03;;;;;;;4.05;1.40;;;;;;;;;;5092320;28;20024;-78
2023/01/01 12:02:47;;;;;;;3.88;1.52;;;;;;;;;;5093598;28;20095;-80
2023/01/01 12:05:16;;;;;;;6.53;1.65;;;;;;;;;;5091720;28;20349;-79
2023/01/01 12:07:43;;;;;;;3.45;1.08;;;;;;;;;;5092585;28;20061;-80
2023/01/01 12:10:26;;;;;;;5.07;1.48;;;;;;;;;;5091428;28;20480;-79
2023/01/01 12:12:57;;;;;;;3.53;1.40;;;;;;;;;;5092689;28;20065;-79
2023/01/01 12:15:26;;;;;;;4.00;1.23;;;;;;;;;;5091583;28;20028;-80
2023/01/01 12:18:01;;;;;;;4.55;1.30;;;;;;;;;;5093252;28;20016;-78
2023/01/01 12:20:35;;;;;;;2.80;1.27;;;;;;;;;;5091589;28;20052;-79
2023/01/01 12:23:02;;;;;;;5.97;1.23;;;;;;;;;;5092619;28;20552;-79
2023/01/01 12:25:33;;;;;;;3.75;1.90;;;;;;;;;;5091819;28;20023;-79
2023/01/01 12:28:19;;;;;;;6.22;1.63;;;;;;;;;;5091944;28;20027;-78
2023/01/01 12:30:44;;;;;;;7.90;1.10;;;;;;;;;;5091327;28;20020;-78
2023/01/01 12:33:13;;;;;;;5.53;1.40;;;;;;;;;;5092590;28;20378;-79
2023/01/01 12:35:58;;;;;;;5.18;1.45;;;;;;;;;;5091627;28;20038;-76
2023/01/01 12:38:38;;;;;;;7.15;2.45;;;;;;;;;;5091893;28;20028;-78
2023/01/01 12:41:19;;;;;;;3.58;1.30;;;;;;;;;;5091302;28;20494;-78
2023/01/01 12:43:45;;;;;;;4.70;1.27;;;;;;;;;;5091362;28;20357;-79
2023/01/01 12:46:30;;;;;;;5.15;1.40;;;;;;;;;;5091798;28;20031;-78
2023/01/01 12:49:14;;;;;;;4.57;1.27;;;;;;;;;;5091530;28;20020;-79
2023/01/01 12:51:46;;;;;;;2.05;1.55;;;;;;;;;;5093714;28;20020;-79
2023/01/01 12:54:14;;;;;;;7.25;1.42;;;;;;;;;;5093905;28;20426;-77
2023/01/01 12:56:49;;;;;;;10.55;1.92;;;;;;;;;;5093801;28;20435;-79
2023/01/01 12:59:41;;;;;;;5.05;1.20;;;;;;;;;;5094397;28;20100;-78
2023/01/01 13:02:13;;;;;;;5.07;1.10;;;;;;;;;;5093161;28;20511;-77
2023/01/01 13:04:40;;;;;;;2.65;1.38;;;;;;;;;;5097408;28;20052;-78
2023/01/01 13:07:08;;;;;;;6.20;1.30;;;;;;;;;;5093059;28;20031;-76
2023/01/01 13:09:38;;;;;;;3.83;1.25;;;;;;;;;;5092705;28;20057;-79
2023/01/01 13:12:06;;;;;;;3.50;1.25;;;;;;;;;;5092372;28;20108;-78
2023/01/01 13:14:38;;;;;;;8.52;2.00;;;;;;;;;;5092039;28;20036;-79
2023/01/01 13:17:04;;;;;;;3.40;0.80;;;;;;;;;;5091121;28;20024;-77
2023/01/01 13:19:31;;;;;;;2.00;0.73;;;;;;;;;;5091231;28;20056;-78
2023/01/01 13:21:57;;;;;;;3.30;1.20;;;;;;;;;;5093374;28;20021;-80
2023/01/01 13:24:24;;;;;;;3.15;0.88;;;;;;;;;;5092457;28;20099;-78
2023/01/01 13:26:51;;;;;;;2.25;0.57;;;;;;;;;;5091067;28;20055;-77
2023/01/01 13:29:19;;;;;;;4.75;1.30;;;;;;;;;;5091820;28;20071;-78
2023/01/01 13:31:47;;;;;;;9.05;0.90;;;;;;;;;;5090697;28;20020;-78
2023/01/01 13:34:33;;;;;;;3.20;1.20;;;;;;;;;;5092161;28;20107;-80
2023/01/01 13:37:16;;;;;;;7.68;1.80;;;;;;;;;;5090920;28;20027;-79
2023/01/01 13:39:52;;;;;;;1.95;1.13;;;;;;;;;;5091468;28;20024;-80
2023/01/01 13:42:36;;;;;;;3.85;2.28;;;;;;;;;;5092541;28;20035;-79
2023/01/01 13:45:02;;;;;;;6.75;1.80;;;;;;;;;;5094011;28;20047;-77
2023/01/01 13:47:27;;;;;;;5.80;1.73;;;;;;;;;;5092195;28;20024;-78
2023/01/01 13:50:04;;;;;;;2.80;1.00;;;;;;;;;;5091323;28;20016;-79
2023/01/01 13:52:48;;;;;;;3.58;1.42;;;;;;;;;;5091073;28;20469;-80
2023/01/01 13:55:32;;;;;;;6.85;1.85;;;;;;;;;;5092039;28;20037;-80
2023/01/01 13:58:16;;;;;;;3.72;1.67;;;;;;;;;;5091078;28;20035;-79
2023/01/01 14:01:07;;;;;;;4.82;1.30;;;;;;;;;;5093391;28;20020;-80
2023/01/01 14:03:37;;;;;;;6.00;1.40;;;;;;;;;;5094854;28;20460;-80
2023/01/01 14:06:05;;;;;;;2.95;1.10;;;;;;;;;;5096117;28;20392;-78
2023/01/01 14:08:33;;;;;;;5.60;1.20;;;;;;;;;;5095933;28;20016;-78
2023/01/01 14:11:02;;;;;;;5.65;0.80;;;;;;;;;;5095552;28;20476;-80
2023/01/01 14:13:31;;;;;;;2.75;1.10;;;;;;;;;;5095929;28;20100;-80
2023/01/01 14:16:01;;;;;;;5.60;1.30;;;;;;;;;;5095714;28;20012;-79
2023/01/01 14:18:32;;;;;;;5.03;1.40;;;;;;;;;;5095223;28;20362;-78
2023/01/01 14:20:59;;;;;;;4.57;0.90;;;;;;;;;;5095151;28;20043;-80
2023/01/01 14:23:30;;;;;;;2.80;1.00;;;;;;;;;;5094116;28;20030;-80
2023/01/01 14:25:55;;;;;;;2.55;0.77;;;;;;;;;;5095372;28;20433;-80
2023/01/01 14:28:24;;;;;;;3.55;1.10;;;;;;;;;;5094508;28;20020;-79
2023/01/01 14:30:50;;;;;;;4.10;1.42;;;;;;;;;;5096135;28;20024;-79
2023/01/01 14:33:22;;;;;;;3.05;1.02;;;;;;;;;;5093567;28;20440;-79
2023/01/01 14:35:52;;;;;;;4.82;1.02;;;;;;;;;;5095445;28;20020;-78
2023/01/01 14:38:24;;;;;;;3.53;1.60;;;;;;;;;;5095592;28;20053;-80
2023/01/01 14:40:58;;;;;;;4.57;1.13;;;;;;;;;;5094954;28;20027;-79
2023/01/01 14:43:24;;;;;;;3.75;1.90;;;;;;;;;;5093556;28;20020;-79
2023/01/01 14:45:52;;;;;;;5.65;1.33;;;;;;;;;;5095638;28;20414;-79
2023/01/01 14:48:18;;;;;;;2.75;1.00;;;;;;;;;;5095320;28;20020;-79
2023/01/01 14:50:49;;;;;;;5.47;1.17;;;;;;;;;;5096297;28;20491;-79